createdAt,value
2018-05-17T00:03:05.579Z,56.94
2018-05-17T00:07:12.339Z,57.30
2018-05-17T00:11:19.056Z,57.55
2018-05-17T00:15:24.972Z,57.63
2018-05-17T00:19:28.439Z,57.77
2018-05-17T00:23:31.849Z,57.87
2018-05-17T00:27:36.288Z,58.02
2018-05-17T00:31:38.781Z,58.08
2018-05-17T00:35:41.255Z,58.15
2018-05-17T00:39:43.731Z,58.32
2018-05-17T00:43:46.212Z,58.51
2018-05-17T00:47:48.696Z,58.65
2018-05-17T00:51:54.463Z,58.81
2018-05-17T00:55:56.943Z,58.84
2018-05-17T00:59:59.427Z,58.93
2018-05-17T01:04:01.891Z,59.09
2018-05-17T01:08:04.410Z,59.27
2018-05-17T01:12:06.903Z,59.32
2018-05-17T01:16:09.378Z,59.34
2018-05-17T01:20:11.855Z,59.61
2018-05-17T01:24:14.343Z,59.69
2018-05-17T01:28:16.801Z,59.81
2018-05-17T01:32:19.290Z,59.85
2018-05-17T01:36:21.746Z,59.89
2018-05-17T01:40:24.222Z,60.00
2018-05-17T01:44:26.710Z,60.21
2018-05-17T01:48:29.199Z,60.22
2018-05-17T01:52:31.686Z,60.28
2018-05-17T01:56:34.167Z,60.20
2018-05-17T02:00:36.616Z,60.37
2018-05-17T02:04:39.092Z,60.40
2018-05-17T02:08:41.588Z,60.57
2018-05-17T02:12:44.045Z,60.75
2018-05-17T02:16:46.532Z,60.70
2018-05-17T02:20:49.010Z,60.72
2018-05-17T02:24:51.521Z,60.76
2018-05-17T02:28:54.000Z,60.88
2018-05-17T02:32:56.606Z,61.08
2018-05-17T02:36:58.981Z,61.14
2018-05-17T02:41:01.471Z,61.13
2018-05-17T02:45:03.950Z,61.29
2018-05-17T02:49:06.468Z,61.46
2018-05-17T02:53:08.943Z,61.56
2018-05-17T02:57:11.439Z,61.64
2018-05-17T03:01:13.892Z,61.74
2018-05-17T03:05:16.357Z,61.94
2018-05-17T03:09:18.844Z,62.06
2018-05-17T03:13:21.340Z,62.07
2018-05-17T03:17:23.842Z,62.23
2018-05-17T03:21:26.333Z,62.41
2018-05-17T03:25:28.821Z,62.42
2018-05-17T03:29:31.331Z,62.35
2018-05-17T03:33:33.839Z,62.30
2018-05-17T03:37:36.315Z,62.29
2018-05-17T03:41:38.835Z,62.35
2018-05-17T03:45:41.291Z,62.31
2018-05-17T03:49:43.779Z,62.26
2018-05-17T03:53:46.250Z,62.32
2018-05-17T03:57:48.733Z,62.16
2018-05-17T04:02:02.953Z,62.07
2018-05-17T04:06:18.214Z,62.03
2018-05-17T04:10:20.727Z,61.95
2018-05-17T04:14:23.205Z,61.91
2018-05-17T04:18:25.691Z,61.67
2018-05-17T04:22:28.180Z,61.55
2018-05-17T04:26:30.670Z,61.50
2018-05-17T04:30:33.161Z,61.58
2018-05-17T04:34:35.651Z,61.65
2018-05-17T04:38:38.151Z,61.68
2018-05-17T04:42:40.657Z,61.39
2018-05-17T04:46:43.122Z,61.38
2018-05-17T04:50:45.610Z,61.14
2018-05-17T04:54:48.129Z,60.78
2018-05-17T04:58:50.595Z,60.53
2018-05-17T05:02:53.105Z,60.83
2018-05-17T05:06:55.583Z,60.85
2018-05-17T07:11:24.647Z,58.71
2018-05-17T07:15:27.379Z,58.74
2018-05-17T09:24:29.991Z,56.75
2018-05-17T11:33:32.444Z,66.06
2018-05-17T11:37:34.913Z,65.49
2018-05-17T11:41:37.389Z,66.17
2018-05-17T11:45:39.879Z,66.60
2018-05-17T11:49:42.385Z,66.32
2018-05-17T11:53:44.875Z,66.06
2018-05-17T11:57:47.339Z,65.83
2018-05-17T12:01:49.825Z,65.87
2018-05-17T12:05:52.315Z,66.16
2018-05-17T12:09:54.797Z,66.76
2018-05-17T12:13:57.294Z,66.58
2018-05-17T12:17:59.763Z,66.06
2018-05-17T12:22:02.247Z,65.86
2018-05-17T12:26:04.734Z,66.31
2018-05-17T12:30:07.219Z,65.90
2018-05-17T12:34:09.722Z,65.85
2018-05-17T12:38:12.188Z,65.57
2018-05-17T12:42:14.683Z,65.97
2018-05-17T12:46:17.153Z,66.38
2018-05-17T12:50:19.638Z,66.37
2018-05-17T12:54:22.131Z,66.31
2018-05-17T12:58:24.617Z,66.21
2018-05-17T13:02:27.099Z,65.32
2018-05-17T13:06:29.612Z,65.70
2018-05-17T13:10:32.064Z,65.81
2018-05-17T13:14:34.555Z,65.34
2018-05-17T13:18:37.035Z,65.40
2018-05-17T13:22:39.486Z,64.71
2018-05-17T13:26:41.963Z,63.74
2018-05-17T13:30:44.447Z,63.86
2018-05-17T13:34:46.941Z,63.51
2018-05-17T13:38:49.425Z,62.52
2018-05-17T13:42:51.902Z,63.31
2018-05-17T13:46:54.380Z,62.97
2018-05-17T15:14:08.588Z,62.39
2018-05-17T15:32:08.972Z,62.37
2018-05-17T15:36:11.477Z,62.56
2018-05-17T15:40:14.894Z,62.25
2018-05-17T15:44:17.377Z,61.63
2018-05-17T15:48:19.886Z,61.46
2018-05-17T15:52:22.347Z,61.99
2018-05-17T15:56:24.813Z,61.92
2018-05-17T16:00:29.318Z,61.76
2018-05-17T16:04:31.805Z,61.98
2018-05-17T16:08:34.331Z,62.25
2018-05-17T16:12:36.758Z,62.29
2018-05-17T16:16:39.244Z,62.29
2018-05-17T16:20:41.722Z,62.53
2018-05-17T16:24:44.198Z,62.55
2018-05-17T16:28:46.673Z,62.69
2018-05-17T16:32:49.128Z,62.69
2018-05-17T16:36:51.608Z,62.99
2018-05-17T16:40:54.110Z,63.06
2018-05-17T16:44:56.563Z,62.88
2018-05-17T16:48:59.042Z,62.97
2018-05-17T16:53:01.546Z,63.09
2018-05-17T16:57:04.023Z,63.20
2018-05-17T17:01:06.530Z,63.26
2018-05-17T17:05:09.104Z,63.54
2018-05-17T17:09:12.498Z,63.37
2018-05-17T17:13:14.953Z,63.51
2018-05-17T17:17:17.437Z,63.50
2018-05-17T17:21:19.915Z,63.77
2018-05-17T17:25:22.409Z,63.78
2018-05-17T17:29:24.903Z,63.56
2018-05-17T17:33:27.375Z,63.59
2018-05-17T17:37:29.880Z,63.76
2018-05-17T17:41:32.367Z,63.62
2018-05-17T17:45:34.858Z,63.83
2018-05-17T17:49:37.322Z,64.06
2018-05-17T17:53:39.911Z,64.09
2018-05-17T17:57:42.364Z,64.35
2018-05-17T18:01:44.857Z,64.34
2018-05-17T18:05:48.283Z,64.41
2018-05-17T18:09:50.869Z,64.53
2018-05-17T18:13:53.327Z,64.75
2018-05-17T18:17:55.822Z,64.90
2018-05-17T18:21:58.303Z,64.85
2018-05-17T18:26:00.796Z,64.56
2018-05-17T18:30:03.276Z,64.35
2018-05-17T18:34:06.706Z,64.51
2018-05-17T18:38:10.226Z,64.44
2018-05-17T18:42:14.671Z,64.26
2018-05-17T18:46:17.152Z,64.08
2018-05-17T18:50:19.641Z,63.93
2018-05-17T18:54:23.029Z,63.81
2018-05-17T18:58:26.465Z,63.77
2018-05-17T19:02:28.922Z,63.71
2018-05-17T19:06:31.388Z,63.73
2018-05-17T19:10:33.867Z,63.48
2018-05-17T19:14:36.349Z,63.31
2018-05-17T19:18:38.805Z,63.34
2018-05-17T19:22:41.274Z,63.29
2018-05-17T19:26:44.723Z,63.10
2018-05-17T19:30:47.211Z,62.96
2018-05-17T19:34:50.682Z,62.71
2018-05-17T19:38:53.162Z,62.60
2018-05-17T19:42:55.647Z,62.29
2018-05-17T19:46:58.131Z,62.30
2018-05-17T19:51:07.299Z,62.37
2018-05-17T19:55:11.740Z,62.47
2018-05-17T20:03:58.470Z,62.46
2018-05-17T20:17:16.141Z,62.38
2018-05-17T20:21:18.631Z,62.51
2018-05-17T20:25:21.155Z,62.78
2018-05-17T20:29:23.670Z,62.93
2018-05-17T20:33:26.116Z,63.00
2018-05-17T20:37:28.610Z,62.98
2018-05-17T20:41:31.100Z,62.84
2018-05-17T20:45:33.584Z,62.95
2018-05-17T20:49:36.173Z,63.00
2018-05-17T20:53:38.558Z,63.22
2018-05-17T20:57:41.057Z,63.37
2018-05-17T21:01:43.542Z,63.49
2018-05-17T21:05:46.006Z,63.72
2018-05-17T21:09:48.492Z,63.85
2018-05-17T21:13:50.972Z,63.99
2018-05-17T21:17:53.427Z,64.07
2018-05-17T21:21:55.915Z,64.29
2018-05-17T21:25:58.375Z,64.16
2018-05-17T21:30:00.876Z,64.28
2018-05-17T21:34:03.494Z,64.15
2018-05-17T21:38:06.870Z,64.22
2018-05-17T21:42:09.361Z,64.35
2018-05-17T21:46:11.838Z,64.43
2018-05-17T21:50:14.325Z,64.45
2018-05-17T21:54:17.731Z,64.48
2018-05-17T21:58:20.288Z,64.51
2018-05-17T22:02:22.779Z,64.28
2018-05-17T22:06:25.256Z,64.34
2018-05-17T22:10:27.709Z,64.12
2018-05-17T22:14:30.214Z,64.10
2018-05-17T22:18:32.699Z,63.92
2018-05-17T22:22:35.159Z,63.83
2018-05-17T22:26:37.646Z,64.03
2018-05-17T22:30:43.679Z,63.97
2018-05-17T22:34:50.642Z,63.96
2018-05-17T22:38:55.078Z,63.89
2018-05-17T22:42:59.520Z,63.99
2018-05-17T22:47:03.947Z,64.06
2018-05-17T22:51:16.948Z,63.75
2018-05-17T22:55:23.018Z,63.50
2018-05-17T22:59:31.569Z,63.34
2018-05-17T23:03:40.283Z,63.29
2018-05-17T23:07:48.256Z,63.38
2018-05-17T23:11:51.767Z,63.14
2018-05-17T23:15:55.279Z,63.14
2018-05-17T23:20:09.914Z,63.25
2018-05-17T23:24:12.412Z,63.11
2018-05-17T23:28:16.848Z,63.08
2018-05-17T23:32:22.280Z,62.88
2018-05-17T23:36:30.059Z,62.87
2018-05-17T23:56:09.859Z,62.86
